Time;durP1;ratioP1;P1;durP2;ratioP2;P2;SDS_P1;SDS_P2;PMS_P1;PMS_P2;Temp;Humidity;BMP_temperature;BMP_pressure;BME280_temperature;BME280_humidity;BME280_pressure;Samples;Min_cycle;Max_cycle;Signal;HPM_P1;HPM_P2
2022/01/22 00:00:28;;;;;;;1.88;0.52;;;;;;;5.62;99.32;102830.72;2065009;28;42116;-76
2022/01/22 00:01:29;;;;;;;2.47;0.45;;;;;;;5.62;98.83;102826.28;2064590;28;45449;-76
2022/01/22 00:02:31;;;;;;;2.47;0.65;;;;;;;5.65;98.94;102830.78;2055648;28;38371;-76
2022/01/22 00:03:34;;;;;;;3.42;0.70;;;;;;;5.63;99.48;102832.50;2057217;28;20126;-77
2022/01/22 00:04:37;;;;;;;2.63;0.50;;;;;;;5.65;98.88;102831.69;2055777;28;46125;-77
2022/01/22 00:05:40;;;;;;;2.65;0.68;;;;;;;5.63;99.20;102832.50;2056758;28;43178;-77
2022/01/22 00:06:44;;;;;;;2.92;0.57;;;;;;;5.63;99.14;102828.06;2065021;28;44074;-77
2022/01/22 00:07:46;;;;;;;2.08;0.47;;;;;;;5.67;99.62;102826.41;2064559;28;46447;-77
2022/01/22 00:08:48;;;;;;;3.75;0.52;;;;;;;5.65;99.58;102831.69;2064852;28;42234;-76
2022/01/22 00:09:58;;;;;;;2.05;0.57;;;;;;;5.68;99.46;102820.25;2064855;28;44435;-76
2022/01/22 00:11:03;;;;;;;3.08;0.80;;;;;;;5.67;99.43;102829.97;2065136;28;23840;-77
2022/01/22 00:12:10;;;;;;;2.33;0.93;;;;;;;5.67;99.09;102819.34;2047930;28;43466;-77
2022/01/22 00:14:23;;;;;;;4.00;0.65;;;;;;;5.67;99.12;102816.69;2056918;28;43102;-77
2022/01/22 00:15:33;;;;;;;3.45;0.55;;;;;;;5.67;99.03;102824.66;2056814;28;20177;-77
2022/01/22 00:16:34;;;;;;;2.35;0.73;;;;;;;5.68;98.97;102818.47;2049565;28;45860;-76
2022/01/22 00:17:37;;;;;;;1.75;0.50;;;;;;;5.67;98.93;102824.66;2057433;28;45408;-76
2022/01/22 00:18:40;;;;;;;3.10;0.52;;;;;;;5.69;99.49;102817.63;2064862;28;44970;-75
2022/01/22 00:19:41;;;;;;;2.70;0.57;;;;;;;5.68;99.56;102813.16;2064103;28;43903;-76
2022/01/22 00:20:43;;;;;;;1.77;0.60;;;;;;;5.70;98.79;102814.09;2064874;28;44089;-76
2022/01/22 00:21:45;;;;;;;3.95;0.52;;;;;;;5.71;99.43;102815.00;2064629;28;32566;-76
2022/01/22 00:22:50;;;;;;;4.22;0.60;;;;;;;5.71;99.01;102807.94;2065044;28;43526;-75
2022/01/22 00:23:56;;;;;;;2.75;0.63;;;;;;;5.72;99.49;102807.09;2064645;28;46530;-78
2022/01/22 00:25:07;;;;;;;1.88;0.55;;;;;;;5.73;98.96;102813.28;2065013;28;44780;-76
2022/01/22 00:26:09;;;;;;;3.55;0.50;;;;;;;5.73;99.05;102814.19;2064633;28;44265;-76
2022/01/22 00:27:10;;;;;;;2.10;0.60;;;;;;;5.72;98.77;102811.47;2064682;28;45313;-77
2022/01/22 00:28:13;;;;;;;3.03;0.93;;;;;;;5.73;99.33;102808.88;2065473;28;20082;-76
2022/01/22 00:29:16;;;;;;;3.33;0.50;;;;;;;5.73;99.00;102810.63;2055932;28;46290;-76
2022/01/22 00:30:25;;;;;;;3.13;0.57;;;;;;;5.72;99.51;102815.06;2040654;28;42196;-76
2022/01/22 00:31:26;;;;;;;3.38;0.63;;;;;;;5.72;99.34;102801.78;2042635;28;44941;-77
2022/01/22 00:32:28;;;;;;;3.78;0.50;;;;;;;5.72;98.62;102812.41;2045249;28;46166;-77
2022/01/22 00:33:30;;;;;;;1.85;0.43;;;;;;;5.73;99.82;102810.63;2060907;28;20039;-77
2022/01/22 00:34:35;;;;;;;2.45;0.50;;;;;;;5.72;98.91;102804.44;2052620;28;44611;-77
2022/01/22 00:35:37;;;;;;;5.05;0.90;;;;;;;5.74;99.51;102809.75;2057344;28;46011;-76
2022/01/22 00:36:39;;;;;;;1.52;0.50;;;;;;;5.73;98.98;102807.97;2064936;28;20101;-76
2022/01/22 00:37:43;;;;;;;2.33;0.50;;;;;;;5.73;99.10;102808.88;2064180;28;46291;-77
2022/01/22 00:38:45;;;;;;;2.97;0.40;;;;;;;5.74;98.98;102810.69;2064759;28;36563;-76
2022/01/22 00:39:48;;;;;;;3.55;0.60;;;;;;;5.74;99.39;102808.03;2056659;28;20046;-77
2022/01/22 00:40:52;;;;;;;3.85;0.50;;;;;;;5.77;99.62;102815.16;2057610;28;21015;-76
2022/01/22 00:41:54;;;;;;;3.53;0.60;;;;;;;5.77;99.58;102814.28;2055507;28;46048;-77
2022/01/22 00:42:56;;;;;;;2.72;0.68;;;;;;;5.77;99.05;102814.28;2055509;28;46518;-76
2022/01/22 00:43:57;;;;;;;3.83;0.40;;;;;;;5.79;99.28;102812.56;2064828;28;42462;-76
2022/01/22 00:45:00;;;;;;;2.13;0.60;;;;;;;5.79;99.30;102812.56;2063995;28;30243;-76
2022/01/22 00:46:02;;;;;;;3.50;0.45;;;;;;;5.80;99.37;102811.72;2063834;28;45971;-76
2022/01/22 00:47:05;;;;;;;2.33;0.50;;;;;;;5.80;99.47;102807.28;2065494;28;20106;-79
2022/01/22 00:48:07;;;;;;;4.18;0.60;;;;;;;5.82;99.06;102812.66;2064803;28;46641;-76
2022/01/22 00:49:09;;;;;;;3.83;0.65;;;;;;;5.84;99.40;102810.94;2063936;28;44937;-76
2022/01/22 00:50:15;;;;;;;4.03;0.60;;;;;;;5.85;99.35;102797.69;2064372;28;42994;-77
2022/01/22 00:51:17;;;;;;;5.82;0.80;;;;;;;5.84;99.02;102811.81;2056070;28;45454;-78
2022/01/22 00:52:19;;;;;;;2.08;0.60;;;;;;;5.84;98.69;102810.94;2047878;28;44754;-76
2022/01/22 00:53:20;;;;;;;2.60;0.60;;;;;;;5.84;99.34;102811.81;2056056;28;30765;-77
2022/01/22 00:54:22;;;;;;;3.30;0.55;;;;;;;5.84;98.79;102811.81;2065039;28;45432;-77
2022/01/22 00:55:24;;;;;;;3.97;0.80;;;;;;;5.84;99.67;102814.47;2064223;28;44312;-75
2022/01/22 00:56:27;;;;;;;6.13;1.17;;;;;;;5.86;98.65;102819.84;2056801;28;21228;-78
2022/01/22 00:57:29;;;;;;;7.15;1.00;;;;;;;5.85;98.45;102818.03;2055843;28;43590;-78
2022/01/22 00:58:34;;;;;;;4.88;0.73;;;;;;;5.84;99.52;102819.78;2065440;28;20136;-76
2022/01/22 00:59:38;;;;;;;7.03;0.98;;;;;;;5.84;99.24;102810.94;2055262;28;45829;-76
2022/01/22 01:00:40;;;;;;;8.02;0.80;;;;;;;5.86;98.74;102815.41;2056888;28;27345;-76
2022/01/22 01:01:42;;;;;;;6.43;0.80;;;;;;;5.86;98.95;102819.84;2064986;28;20790;-76
2022/01/22 01:02:47;;;;;;;6.70;1.08;;;;;;;5.87;98.52;102817.22;2055802;28;38928;-76
2022/01/22 01:03:51;;;;;;;6.57;0.90;;;;;;;5.87;99.28;102817.22;2040530;28;32152;-76
2022/01/22 01:04:53;;;;;;;4.15;0.82;;;;;;;5.89;99.14;102817.28;2041562;28;20044;-77
2022/01/22 01:05:56;;;;;;;6.50;1.10;;;;;;;5.88;98.60;102816.34;2048262;28;20111;-77
2022/01/22 01:06:57;;;;;;;5.47;0.90;;;;;;;5.89;99.21;102820.81;2056945;28;20098;-77
2022/01/22 01:08:03;;;;;;;7.93;0.95;;;;;;;5.90;98.63;102821.72;2064513;28;42496;-76
2022/01/22 01:09:08;;;;;;;8.35;1.02;;;;;;;5.90;98.90;102821.72;2064010;28;45429;-76
2022/01/22 01:10:15;;;;;;;6.90;0.90;;;;;;;5.90;98.55;102811.06;2056772;28;20043;-76
2022/01/22 01:11:17;;;;;;;7.53;1.38;;;;;;;5.91;98.54;102820.88;2049024;28;20083;-76
2022/01/22 01:12:19;;;;;;;5.38;1.00;;;;;;;5.93;98.69;102819.16;2048207;28;33023;-77
2022/01/22 01:13:21;;;;;;;9.35;1.20;;;;;;;5.91;98.80;102821.75;2048474;28;20040;-75
2022/01/22 01:14:49;;;;;;;7.50;0.90;;;;;;;5.92;98.77;102817.34;2049006;28;25079;-76
2022/01/22 01:15:59;;;;;;;7.72;1.20;;;;;;;5.93;98.29;102816.47;2050735;28;41614;-76
2022/01/22 01:33:05;;;;;;;9.55;1.40;;;;;;;6.03;98.08;102823.88;2059105;28;37380;-75
2022/01/22 01:34:15;;;;;;;15.77;1.40;;;;;;;6.01;98.54;102825.63;2055170;28;45437;-75
2022/01/22 01:35:17;;;;;;;16.05;1.33;;;;;;;6.02;97.85;102826.50;2057997;28;45159;-76
2022/01/22 01:36:19;;;;;;;8.68;1.48;;;;;;;6.02;98.04;102826.50;2056282;28;20182;-76
2022/01/22 01:37:21;;;;;;;10.43;1.15;;;;;;;6.03;98.24;102822.97;2047991;28;20846;-76
2022/01/22 01:38:24;;;;;;;18.33;1.70;;;;;;;6.01;98.17;102830.94;2048531;28;20051;-77
2022/01/22 01:39:31;;;;;;;10.18;1.17;;;;;;;6.02;98.56;102826.50;2048306;28;20095;-77
2022/01/22 01:40:39;;;;;;;15.55;1.52;;;;;;;6.01;97.77;102830.94;2048887;28;20132;-76
2022/01/22 01:42:04;;;;;;;9.90;1.33;;;;;;;6.00;97.88;102821.13;2048285;28;40022;-76
2022/01/22 01:43:12;;;;;;;8.75;1.08;;;;;;;6.01;98.67;102824.69;2055878;28;20082;-76
2022/01/22 01:44:18;;;;;;;14.30;1.85;;;;;;;6.02;98.39;102827.41;2049396;28;20090;-76
2022/01/22 01:45:34;;;;;;;14.38;1.70;;;;;;;6.05;98.20;102826.59;2050561;28;20192;-76
2022/01/22 01:46:42;;;;;;;16.30;2.20;;;;;;;6.04;98.49;102832.75;2049375;28;44275;-76
2022/01/22 01:47:47;;;;;;;13.57;1.83;;;;;;;6.03;97.66;102830.94;2041654;28;20085;-75
2022/01/22 01:48:51;;;;;;;11.00;1.70;;;;;;;6.02;98.55;102831.81;2049811;28;35331;-76
2022/01/22 01:49:56;;;;;;;13.82;1.83;;;;;;;6.03;98.21;102830.94;2056325;28;20040;-77
2022/01/22 01:51:03;;;;;;;16.73;2.13;;;;;;;6.02;98.63;102827.41;2041428;28;20044;-77
2022/01/22 01:52:12;;;;;;;15.35;2.10;;;;;;;6.02;98.43;102826.50;2041376;28;21046;-76
2022/01/22 01:55:19;;;;;;;14.25;1.95;;;;;;;6.03;98.42;102831.88;2044787;28;20047;-76
2022/01/22 01:57:38;;;;;;;11.50;1.27;;;;;;;6.03;98.25;102842.50;2058473;28;20047;-76
2022/01/22 01:58:42;;;;;;;16.05;2.25;;;;;;;6.03;98.20;102837.19;2062833;28;20094;-77
2022/01/22 01:59:47;;;;;;;20.80;2.08;;;;;;;6.03;98.15;102831.88;2048009;28;23474;-76
2022/01/22 02:01:03;;;;;;;18.52;2.38;;;;;;;6.03;97.99;102834.53;2049395;28;20036;-79
2022/01/22 02:02:09;;;;;;;15.55;2.30;;;;;;;6.01;97.93;102836.25;2057226;28;20059;-76
2022/01/22 02:03:14;;;;;;;11.98;2.20;;;;;;;6.04;98.48;102841.63;2056357;28;20137;-78
2022/01/22 02:04:22;;;;;;;22.08;2.20;;;;;;;6.03;97.92;102834.53;2049584;28;20043;-76
2022/01/22 02:05:25;;;;;;;18.15;2.10;;;;;;;6.04;98.07;102846.94;2048136;28;20043;-76
2022/01/22 02:06:32;;;;;;;22.73;2.92;;;;;;;6.04;97.93;102844.28;2049457;28;20130;-76
2022/01/22 02:07:37;;;;;;;18.90;2.80;;;;;;;6.02;98.44;102843.34;2055535;28;43467;-77
2022/01/22 02:08:44;;;;;;;14.93;2.88;;;;;;;6.01;98.42;102846.88;2056569;28;21037;-76
2022/01/22 02:09:54;;;;;;;16.35;2.65;;;;;;;6.02;98.40;102848.66;2048905;28;20872;-78
2022/01/22 02:10:59;;;;;;;15.88;2.10;;;;;;;6.02;98.49;102848.66;2047862;28;27910;-76
2022/01/22 02:24:02;;;;;;;16.70;2.28;;;;;;;6.00;98.20;102871.66;2055662;28;20056;-77
2022/01/22 02:25:08;;;;;;;14.27;1.85;;;;;;;6.01;98.52;102873.47;2048886;28;21073;-76
2022/01/22 02:26:13;;;;;;;13.85;1.98;;;;;;;6.02;98.45;102875.25;2056113;28;29388;-76
2022/01/22 02:27:19;;;;;;;11.00;1.45;;;;;;;6.04;98.27;102875.31;2056141;28;20960;-76
2022/01/22 02:28:20;;;;;;;18.73;2.03;;;;;;;6.01;98.67;102867.22;2047970;28;20048;-75
2022/01/22 02:29:22;;;;;;;13.35;1.40;;;;;;;6.01;98.64;102873.47;2048258;28;20341;-76
2022/01/22 02:30:52;;;;;;;15.50;1.80;;;;;;;6.01;98.25;102868.16;2059142;28;20050;-77
2022/01/22 02:33:01;;;;;;;15.05;1.65;;;;;;;5.99;98.71;102872.50;2060440;28;20086;-77
2022/01/22 02:35:34;;;;;;;7.10;0.90;;;;;;;6.00;98.47;102871.66;2058201;28;27235;-76
2022/01/22 02:36:46;;;;;;;16.23;1.60;;;;;;;5.99;98.67;102875.16;2064199;28;20035;-76
2022/01/22 02:37:58;;;;;;;10.90;1.13;;;;;;;5.99;98.72;102875.16;2064813;28;20975;-76
2022/01/22 02:39:09;;;;;;;6.40;0.93;;;;;;;6.01;98.94;102884.13;2055786;28;20842;-76
2022/01/22 02:40:17;;;;;;;11.95;1.10;;;;;;;6.01;98.97;102884.13;2056524;28;44598;-77
2022/01/22 02:41:21;;;;;;;13.23;1.20;;;;;;;6.00;98.65;102884.06;2063930;28;20074;-76
2022/01/22 02:42:28;;;;;;;9.65;0.93;;;;;;;5.99;98.99;102872.50;2055961;28;20095;-77
2022/01/22 02:43:31;;;;;;;14.95;1.20;;;;;;;5.99;98.86;102879.59;2048199;28;20043;-77
2022/01/22 02:44:35;;;;;;;8.85;1.00;;;;;;;5.98;98.44;102881.34;2055649;28;46111;-77
2022/01/22 02:45:48;;;;;;;10.82;1.10;;;;;;;5.98;98.34;102878.69;2064246;28;20932;-77
2022/01/22 02:46:53;;;;;;;10.23;1.10;;;;;;;5.99;99.06;102880.47;2063097;28;20833;-77
2022/01/22 02:47:54;;;;;;;10.77;0.80;;;;;;;6.04;98.43;102880.63;2048224;28;20885;-75
2022/01/22 02:48:57;;;;;;;14.10;1.27;;;;;;;6.02;98.72;102877.91;2047533;28;20131;-76
2022/01/22 02:49:59;;;;;;;10.80;0.90;;;;;;;6.02;98.52;102874.38;2047990;28;20048;-76
2022/01/22 02:51:01;;;;;;;7.95;0.70;;;;;;;6.00;98.61;102884.94;2056144;28;20047;-78
2022/01/22 02:52:07;;;;;;;6.63;0.60;;;;;;;6.02;98.16;102877.03;2055779;28;23454;-78
2022/01/22 02:53:13;;;;;;;6.05;0.60;;;;;;;6.03;98.85;102874.41;2048880;28;20040;-78
2022/01/22 02:54:16;;;;;;;7.88;0.60;;;;;;;6.00;98.72;102882.28;2055388;28;20086;-76
2022/01/22 02:55:18;;;;;;;10.07;0.80;;;;;;;6.00;98.42;102882.28;2040215;28;20036;-77
2022/01/22 02:56:23;;;;;;;11.80;1.00;;;;;;;6.02;98.69;102888.56;2048007;28;20044;-77
2022/01/22 02:57:26;;;;;;;13.02;0.80;;;;;;;5.98;98.76;102892.00;2048154;28;20048;-77
2022/01/22 02:58:30;;;;;;;9.35;1.15;;;;;;;6.00;98.84;102884.94;2056605;28;20970;-77
2022/01/22 02:59:32;;;;;;;11.23;1.23;;;;;;;5.98;98.29;102889.34;2056038;28;20146;-77
2022/01/22 03:00:35;;;;;;;8.82;0.85;;;;;;;6.00;98.85;102892.94;2047030;28;41187;-77
2022/01/22 03:01:38;;;;;;;6.82;0.80;;;;;;;5.99;98.63;102891.13;2047550;28;20040;-76
2022/01/22 03:02:42;;;;;;;11.55;1.00;;;;;;;5.99;98.66;102891.13;2047813;28;21013;-76
2022/01/22 03:03:44;;;;;;;7.40;0.82;;;;;;;6.00;98.66;102887.63;2056145;28;28841;-76
2022/01/22 03:04:47;;;;;;;8.43;0.80;;;;;;;6.02;98.53;102890.31;2047748;28;20051;-76
2022/01/22 03:05:49;;;;;;;7.95;0.85;;;;;;;6.01;98.37;102889.44;2040451;28;20929;-76
2022/01/22 03:06:51;;;;;;;7.50;0.70;;;;;;;6.03;98.56;102887.72;2047136;28;32925;-76
2022/01/22 03:07:55;;;;;;;7.07;1.02;;;;;;;6.03;97.92;102893.03;2055126;28;45763;-76
2022/01/22 03:09:00;;;;;;;8.93;0.70;;;;;;;6.02;98.40;102892.97;2055849;28;20055;-77
2022/01/22 03:10:05;;;;;;;6.53;0.63;;;;;;;6.05;98.21;102893.06;2046921;28;45919;-76
2022/01/22 03:11:17;;;;;;;12.73;1.23;;;;;;;6.04;98.19;102888.59;2048267;28;20087;-76
2022/01/22 03:16:06;;;;;;;6.32;0.43;;;;;;;5.99;98.58;102890.22;2049191;28;21605;-77
2022/01/22 03:18:18;;;;;;;8.55;0.55;;;;;;;5.97;98.11;102887.53;2048290;28;20040;-76
2022/01/22 03:19:58;;;;;;;8.70;0.70;;;;;;;5.99;97.97;102883.13;2048248;28;20055;-76
2022/01/22 03:22:12;;;;;;;6.22;0.68;;;;;;;6.00;97.40;102873.44;2064627;28;20082;-76
2022/01/22 03:27:24;;;;;;;7.90;0.70;;;;;;;5.94;98.25;102887.44;2057677;28;45081;-76
2022/01/22 03:28:29;;;;;;;11.25;0.70;;;;;;;5.95;97.63;102885.66;2068251;28;40739;-77
2022/01/22 03:29:34;;;;;;;8.00;1.08;;;;;;;5.91;97.68;102884.66;2061105;28;20047;-77
2022/01/22 03:30:37;;;;;;;9.10;1.10;;;;;;;5.88;97.42;102884.56;2061657;28;20047;-76
2022/01/22 03:31:40;;;;;;;7.38;0.75;;;;;;;5.90;98.38;102890.84;2057342;28;31679;-76
2022/01/22 03:32:47;;;;;;;10.55;0.98;;;;;;;5.90;97.83;102890.84;2047612;28;20799;-76
2022/01/22 03:33:49;;;;;;;6.95;0.65;;;;;;;5.90;98.20;102885.50;2056246;28;20366;-76
2022/01/22 03:35:00;;;;;;;6.43;0.93;;;;;;;5.90;98.18;102885.50;2063640;28;20042;-77
2022/01/22 03:36:06;;;;;;;6.47;0.65;;;;;;;5.88;97.64;102881.91;2055512;28;20048;-76
2022/01/22 03:37:11;;;;;;;11.80;0.82;;;;;;;5.90;97.82;102890.84;2048123;28;20044;-76
2022/01/22 03:38:12;;;;;;;8.15;0.77;;;;;;;5.90;98.37;102886.44;2047403;28;28037;-75
2022/01/22 03:39:14;;;;;;;9.38;0.80;;;;;;;5.89;97.52;102887.28;2052242;28;42706;-76
2022/01/22 03:40:17;;;;;;;10.95;0.80;;;;;;;5.88;97.47;102897.88;2055524;28;20337;-77
2022/01/22 03:41:19;;;;;;;5.25;0.60;;;;;;;5.89;98.14;102894.38;2047688;28;20044;-77
2022/01/22 03:42:26;;;;;;;8.10;0.68;;;;;;;5.87;97.19;102901.41;2055439;28;20043;-77
2022/01/22 03:43:28;;;;;;;9.30;0.80;;;;;;;5.86;97.42;102896.94;2047219;28;20194;-77
2022/01/22 03:44:32;;;;;;;8.10;0.50;;;;;;;5.88;98.03;102897.88;2047929;28;20047;-77
2022/01/22 03:45:35;;;;;;;6.72;0.60;;;;;;;5.86;97.74;102902.25;2048196;28;20094;-77
2022/01/22 03:46:41;;;;;;;8.18;0.80;;;;;;;5.85;97.17;102892.47;2047020;28;34629;-77
2022/01/22 03:47:45;;;;;;;7.43;0.57;;;;;;;5.85;97.62;102898.69;2048393;28;20039;-77
2022/01/22 03:48:48;;;;;;;7.63;0.70;;;;;;;5.83;97.82;102897.75;2054703;28;46128;-77
2022/01/22 03:49:50;;;;;;;5.10;0.40;;;;;;;5.87;97.93;102909.38;2054896;28;43062;-77
2022/01/22 03:50:51;;;;;;;10.45;0.70;;;;;;;5.88;98.01;102900.53;2055389;28;20166;-75
2022/01/22 03:51:54;;;;;;;7.75;0.50;;;;;;;5.88;97.54;102904.06;2047699;28;20055;-76
2022/01/22 03:52:55;;;;;;;6.95;0.45;;;;;;;5.87;97.14;102909.38;2054968;28;43087;-75
2022/01/22 03:53:58;;;;;;;5.10;0.50;;;;;;;5.85;97.66;102908.41;2055036;28;20070;-78
2022/01/22 03:55:00;;;;;;;6.15;0.50;;;;;;;5.85;97.31;102917.31;2055192;28;39384;-76
2022/01/22 03:56:23;;;;;;;8.55;0.60;;;;;;;5.84;97.33;102918.16;2064333;28;20437;-76
2022/01/22 03:57:41;;;;;;;5.20;0.70;;;;;;;5.81;97.41;102912.72;2055538;28;20929;-75
2022/01/22 03:58:45;;;;;;;7.40;0.40;;;;;;;5.83;97.54;102915.44;2055833;28;20043;-76
2022/01/22 04:00:07;;;;;;;8.13;0.68;;;;;;;5.80;97.20;102923.34;2058532;28;20126;-75
2022/01/22 04:03:36;;;;;;;6.13;0.45;;;;;;;5.82;97.64;102918.97;2055098;28;20043;-75
2022/01/22 04:04:15;;;;;;;6.93;0.50;;;;;;;5.80;97.48;102926.91;2038030;28;35003;-76
2022/01/22 04:05:17;;;;;;;6.55;0.85;;;;;;;5.80;97.58;102920.69;2049285;28;20044;-76
2022/01/22 04:08:07;;;;;;;7.47;0.50;;;;;;;5.80;97.32;102923.34;2055517;28;44640;-76
2022/01/22 04:09:11;;;;;;;5.40;0.45;;;;;;;5.81;97.32;102925.13;2055521;28;20167;-76
2022/01/22 04:10:14;;;;;;;3.83;0.40;;;;;;;5.82;97.39;102930.50;2048528;28;38543;-76
2022/01/22 04:11:19;;;;;;;4.10;0.40;;;;;;;5.80;97.13;102928.66;2038972;28;43347;-75
2022/01/22 04:12:29;;;;;;;6.68;0.40;;;;;;;5.81;97.58;102919.81;2039863;28;38705;-75
2022/01/22 04:13:34;;;;;;;3.63;0.45;;;;;;;5.81;97.97;102919.81;2054613;28;46169;-76
2022/01/22 04:14:46;;;;;;;4.97;0.50;;;;;;;5.80;97.31;102926.91;2055678;28;20044;-76
2022/01/22 04:15:49;;;;;;;6.95;0.35;;;;;;;5.82;97.92;102925.19;2039549;28;44055;-75
2022/01/22 04:25:19;;;;;;;5.85;0.30;;;;;;;5.80;97.65;102928.66;2055036;28;45687;-76
2022/01/22 04:26:35;;;;;;;10.15;0.40;;;;;;;5.77;97.45;102932.13;2054739;28;34022;-75
2022/01/22 04:27:36;;;;;;;10.07;0.60;;;;;;;5.77;97.19;102928.56;2049269;28;44424;-75
2022/01/22 04:28:40;;;;;;;6.45;0.50;;;;;;;5.78;97.30;102928.63;2048844;28;45543;-75
2022/01/22 04:29:41;;;;;;;10.70;0.65;;;;;;;5.75;97.06;102925.84;2046818;28;45778;-74
2022/01/22 04:30:43;;;;;;;4.88;0.70;;;;;;;5.74;97.64;102935.59;2047094;28;44312;-75
2022/01/22 04:31:45;;;;;;;8.38;0.40;;;;;;;5.73;98.07;102925.81;2047045;28;27987;-75
2022/01/22 04:32:47;;;;;;;5.85;0.57;;;;;;;5.69;97.18;102921.28;2054528;28;43863;-75
2022/01/22 04:33:51;;;;;;;6.53;0.65;;;;;;;5.70;97.31;102920.41;2054301;28;45923;-76
2022/01/22 04:34:55;;;;;;;8.25;0.85;;;;;;;5.71;97.55;102921.31;2055933;28;20035;-75
2022/01/22 04:35:56;;;;;;;6.50;0.68;;;;;;;5.70;96.52;102920.41;2055447;28;43884;-75
2022/01/22 04:37:00;;;;;;;5.93;0.50;;;;;;;5.73;96.93;102917.84;2055338;28;20052;-74
2022/01/22 04:38:02;;;;;;;7.93;0.88;;;;;;;5.73;97.00;102924.91;2046438;28;45784;-75
2022/01/22 04:39:06;;;;;;;8.82;0.80;;;;;;;5.73;96.68;102924.91;2047517;28;33847;-75
2022/01/22 04:40:08;;;;;;;7.32;0.60;;;;;;;5.71;96.79;102931.97;2054852;28;31049;-76
2022/01/22 04:41:10;;;;;;;7.00;0.52;;;;;;;5.73;97.01;102928.47;2054998;28;30438;-76
2022/01/22 04:42:17;;;;;;;8.57;0.30;;;;;;;5.73;96.79;102935.56;2047182;28;20082;-76
2022/01/22 04:43:19;;;;;;;7.50;0.40;;;;;;;5.68;96.57;102930.09;2048464;28;20174;-76
2022/01/22 04:44:26;;;;;;;6.93;0.60;;;;;;;5.70;96.62;102931.03;2047093;28;20032;-76
2022/01/22 04:52:29;;;;;;;7.43;0.50;;;;;;;5.70;96.68;102936.34;2055900;28;20046;-77
2022/01/22 04:55:42;;;;;;;7.45;0.50;;;;;;;5.64;97.09;102941.50;2051521;28;20098;-76
2022/01/22 04:56:44;;;;;;;5.07;0.50;;;;;;;5.64;97.12;102941.50;2041286;28;20092;-76
2022/01/22 04:57:48;;;;;;;6.38;0.30;;;;;;;5.61;97.03;102946.72;2042525;28;20044;-76
2022/01/22 04:58:53;;;;;;;5.57;0.30;;;;;;;5.63;97.31;102945.00;2056279;28;20090;-76
2022/01/22 04:59:56;;;;;;;5.68;0.30;;;;;;;5.57;97.10;102943.94;2041423;28;32120;-76
2022/01/22 05:00:58;;;;;;;2.58;0.20;;;;;;;5.59;97.51;102943.09;2049002;28;20076;-75
2022/01/22 05:02:21;;;;;;;6.35;0.40;;;;;;;5.58;97.63;102946.63;2062030;28;20047;-76
2022/01/22 05:03:35;;;;;;;4.47;0.30;;;;;;;5.59;97.82;102940.44;2057572;28;20051;-77
2022/01/22 05:04:52;;;;;;;2.97;0.20;;;;;;;5.58;97.13;102943.97;2056187;28;20043;-76
2022/01/22 05:06:12;;;;;;;3.58;0.20;;;;;;;5.57;97.66;102946.59;2056732;28;20095;-76
2022/01/22 05:07:20;;;;;;;3.25;0.20;;;;;;;5.57;97.93;102950.13;2064586;28;20074;-75
2022/01/22 05:08:48;;;;;;;4.97;0.30;;;;;;;5.54;97.42;102944.72;2038461;28;20057;-75
2022/01/22 05:09:51;;;;;;;6.72;0.35;;;;;;;5.54;98.01;102937.69;2057526;28;20162;-75
2022/01/22 05:10:53;;;;;;;5.28;0.20;;;;;;;5.53;98.30;102940.28;2064668;28;20039;-78
2022/01/22 05:11:58;;;;;;;4.15;0.20;;;;;;;5.50;97.79;102942.84;2055848;28;32217;-77
2022/01/22 05:13:02;;;;;;;6.40;0.30;;;;;;;5.50;97.57;102942.84;2048893;28;20040;-75
2022/01/22 05:14:04;;;;;;;4.40;0.28;;;;;;;5.51;97.80;102934.91;2048884;28;20044;-75
2022/01/22 05:15:07;;;;;;;3.78;0.30;;;;;;;5.53;98.24;102945.59;2056533;28;20185;-76
2022/01/22 05:16:10;;;;;;;5.68;0.22;;;;;;;5.51;98.36;102931.38;2056953;28;20173;-75
2022/01/22 05:17:12;;;;;;;5.45;0.75;;;;;;;5.50;97.53;102937.53;2048416;28;20043;-76
2022/01/22 05:18:19;;;;;;;2.58;0.20;;;;;;;5.51;97.68;102937.56;2049422;28;20044;-76
2022/01/22 05:19:37;;;;;;;5.15;0.40;;;;;;;5.51;97.31;102939.34;2056541;28;20043;-79
2022/01/22 05:20:48;;;;;;;6.32;0.40;;;;;;;5.53;97.44;102937.63;2055544;28;20047;-76
2022/01/22 05:21:53;;;;;;;7.72;0.60;;;;;;;5.50;97.18;102937.53;2057226;28;20177;-75
2022/01/22 05:23:09;;;;;;;4.20;0.40;;;;;;;5.49;97.94;102938.38;2064374;28;20921;-76
2022/01/22 05:24:17;;;;;;;4.78;0.30;;;;;;;5.50;97.09;102937.53;2056072;28;20054;-74
2022/01/22 05:25:25;;;;;;;5.32;0.90;;;;;;;5.48;97.34;102937.47;2049624;28;20083;-75
2022/01/22 05:28:00;;;;;;;7.47;0.90;;;;;;;5.47;97.91;102942.72;2050783;28;20910;-74
2022/01/22 05:32:29;;;;;;;5.93;0.82;;;;;;;5.43;97.47;102940.84;2043667;28;20051;-76
2022/01/22 05:36:59;;;;;;;5.47;0.73;;;;;;;5.40;97.79;102952.28;2047542;28;31416;-76
2022/01/22 05:38:03;;;;;;;6.97;0.40;;;;;;;5.44;97.59;102954.19;2051122;28;20202;-75
2022/01/22 05:39:10;;;;;;;8.77;1.05;;;;;;;5.43;97.51;102952.38;2048545;28;20083;-75
2022/01/22 05:40:15;;;;;;;12.10;0.77;;;;;;;5.42;98.12;102945.28;2048747;28;20887;-76
2022/01/22 05:41:16;;;;;;;4.45;0.90;;;;;;;5.41;97.38;102948.75;2047408;28;46368;-74
2022/01/22 05:42:18;;;;;;;6.68;0.50;;;;;;;5.41;97.70;102946.09;2048346;28;43299;-76
2022/01/22 05:43:20;;;;;;;8.80;0.40;;;;;;;5.41;97.49;102951.41;2048494;28;45826;-84
2022/01/22 05:44:27;;;;;;;8.23;0.70;;;;;;;5.42;97.66;102952.31;2046808;28;44768;-75
2022/01/22 05:45:29;;;;;;;8.60;0.40;;;;;;;5.39;97.91;102946.94;2046899;28;44679;-75
2022/01/22 05:46:31;;;;;;;7.70;0.63;;;;;;;5.37;97.88;102952.19;2031017;29;45645;-75
2022/01/22 05:47:33;;;;;;;7.50;0.70;;;;;;;5.38;98.18;102950.44;2031707;28;43092;-75
2022/01/22 05:48:35;;;;;;;10.85;0.57;;;;;;;5.38;98.20;102947.78;2031521;29;46710;-76
2022/01/22 05:49:41;;;;;;;10.70;0.50;;;;;;;5.38;98.26;102953.09;2040303;28;29071;-75
2022/01/22 05:50:52;;;;;;;9.23;0.80;;;;;;;5.40;98.13;102959.34;2048613;28;20127;-76
2022/01/22 05:51:56;;;;;;;5.38;0.40;;;;;;;5.39;98.04;102961.09;2047286;28;20174;-76
2022/01/22 05:53:15;;;;;;;9.98;0.98;;;;;;;5.38;97.70;102964.59;2047639;28;20048;-76
2022/01/22 05:59:40;;;;;;;8.77;0.47;;;;;;;5.41;98.06;102985.94;2054700;28;20047;-76
2022/01/22 06:00:48;;;;;;;8.65;0.50;;;;;;;5.40;98.30;102984.16;2056411;28;20070;-75
2022/01/22 06:02:00;;;;;;;3.25;0.20;;;;;;;5.41;98.86;102982.41;2056090;28;20058;-75
2022/01/22 06:03:02;;;;;;;5.85;0.63;;;;;;;5.41;97.64;102980.63;2048007;28;20092;-76
2022/01/22 06:04:03;;;;;;;6.28;0.50;;;;;;;5.39;98.33;102989.44;2047853;28;20043;-75
2022/01/22 06:05:08;;;;;;;8.82;0.38;;;;;;;5.39;97.65;102981.47;2048311;28;20189;-74
2022/01/22 06:06:13;;;;;;;15.07;1.05;;;;;;;5.39;98.13;102985.00;2048297;28;22652;-75
2022/01/22 06:07:15;;;;;;;14.57;0.80;;;;;;;5.40;97.72;102983.25;2048237;28;20475;-76
2022/01/22 06:08:18;;;;;;;10.07;0.88;;;;;;;5.39;98.23;102981.47;2056142;28;20054;-75
2022/01/22 06:09:20;;;;;;;10.25;0.85;;;;;;;5.42;98.95;102986.84;2055994;28;21049;-75
2022/01/22 06:10:29;;;;;;;7.90;0.40;;;;;;;5.41;98.70;102988.59;2047968;28;20051;-77
2022/01/22 06:11:51;;;;;;;8.45;0.60;;;;;;;5.42;98.41;102993.09;2049430;28;20036;-75
2022/01/22 06:13:14;;;;;;;9.18;0.50;;;;;;;5.40;98.33;102989.47;2048101;28;20044;-78
2022/01/22 06:14:16;;;;;;;7.13;0.70;;;;;;;5.41;98.30;102993.03;2047314;28;20052;-80
2022/01/22 06:15:21;;;;;;;12.75;0.95;;;;;;;5.40;98.30;102989.47;2058038;28;20031;-78
2022/01/22 06:16:51;;;;;;;7.97;0.63;;;;;;;5.39;98.71;102978.81;2055405;28;20242;-76
2022/01/22 06:18:04;;;;;;;10.88;0.75;;;;;;;5.39;97.97;102984.13;2041930;28;20041;-76
2022/01/22 06:19:06;;;;;;;11.52;0.43;;;;;;;5.38;98.36;102982.31;2040719;28;20048;-77
2022/01/22 06:20:13;;;;;;;7.40;0.80;;;;;;;5.40;98.54;102984.16;2048145;28;20040;-76
2022/01/22 06:21:15;;;;;;;8.90;0.75;;;;;;;5.42;98.46;102989.50;2055859;28;20150;-76
2022/01/22 06:22:17;;;;;;;5.93;0.50;;;;;;;5.41;97.76;102987.72;2046916;28;20043;-74
2022/01/22 06:23:19;;;;;;;6.65;0.50;;;;;;;5.41;98.16;102991.28;2048282;28;20410;-75
2022/01/22 06:24:23;;;;;;;3.15;0.45;;;;;;;5.40;98.54;102984.16;2047630;28;20919;-75
2022/01/22 06:25:26;;;;;;;6.53;0.80;;;;;;;5.41;97.91;102993.94;2048569;28;20055;-75
2022/01/22 06:26:27;;;;;;;6.03;0.45;;;;;;;5.40;98.15;102983.25;2047777;28;20032;-75
2022/01/22 06:27:30;;;;;;;6.18;0.60;;;;;;;5.41;98.47;102991.28;2048092;28;20095;-76